createdAt,value
2022-08-09T00:00:29.928Z,23.37
2022-08-09T00:02:58.931Z,23.28
2022-08-09T00:06:18.563Z,23.42
2022-08-09T00:08:32.594Z,23.24
2022-08-09T00:11:05.956Z,23.33
2022-08-09T00:13:56.794Z,23.16
2022-08-09T00:16:38.514Z,23.11
2022-08-09T00:19:09.599Z,23.14
2022-08-09T00:21:56.226Z,23.13
2022-08-09T00:24:32.706Z,23.13
2022-08-09T00:30:23.609Z,23.08
2022-08-09T00:32:54.038Z,23.03
2022-08-09T00:35:29.643Z,22.89
2022-08-09T00:38:21.449Z,22.74
2022-08-09T00:40:53.227Z,22.80
2022-08-09T00:44:13.798Z,22.79
2022-08-09T00:46:28.361Z,22.81
2022-08-09T00:49:11.942Z,22.66
2022-08-09T00:52:05.977Z,22.49
2022-08-09T00:54:45.037Z,22.53
2022-08-09T00:57:12.737Z,22.53
2022-08-09T00:59:55.013Z,22.56
2022-08-09T01:03:28.446Z,22.66
2022-08-09T01:06:25.544Z,22.56
2022-08-09T01:09:57.933Z,22.40
2022-08-09T01:12:28.187Z,22.59
2022-08-09T01:15:17.041Z,22.36
2022-08-09T01:18:09.689Z,22.35
2022-08-09T01:20:58.324Z,22.23
2022-08-09T01:24:04.922Z,22.43
2022-08-09T01:26:54.088Z,22.42
2022-08-09T01:29:55.303Z,22.38
2022-08-09T01:32:31.790Z,22.37
2022-08-09T01:35:38.659Z,22.33
2022-08-09T01:38:19.960Z,22.19
2022-08-09T01:44:05.969Z,22.19
2022-08-09T01:46:38.426Z,22.31
2022-08-09T01:49:12.659Z,22.31
2022-08-09T01:52:07.265Z,22.16
2022-08-09T01:54:48.703Z,22.34
2022-08-09T01:57:21.696Z,22.28
2022-08-09T01:59:52.991Z,22.22
2022-08-09T02:02:30.843Z,22.13
2022-08-09T02:05:05.194Z,22.10
2022-08-09T02:08:40.277Z,22.18
2022-08-09T02:10:40.338Z,22.03
2022-08-09T02:13:13.300Z,21.99
2022-08-09T02:15:50.909Z,22.06
2022-08-09T02:21:08.572Z,22.19
2022-08-09T02:24:02.655Z,22.16
2022-08-09T02:26:34.594Z,22.11
2022-08-09T02:29:15.703Z,22.04
2022-08-09T02:31:46.420Z,22.03
2022-08-09T02:34:41.588Z,21.82
2022-08-09T02:37:31.665Z,21.78
2022-08-09T02:40:10.573Z,21.79
2022-08-09T02:42:42.886Z,21.75
2022-08-09T02:45:17.579Z,21.95
2022-08-09T02:47:46.255Z,21.76
2022-08-09T02:50:28.388Z,21.64
2022-08-09T02:53:00.699Z,21.85
2022-08-09T02:55:46.221Z,21.61
2022-08-09T02:58:35.913Z,21.64
2022-08-09T03:01:08.066Z,21.83
2022-08-09T03:04:17.628Z,21.85
2022-08-09T03:06:30.119Z,21.69
2022-08-09T03:09:03.839Z,21.83
2022-08-09T03:12:05.340Z,21.56
2022-08-09T03:14:26.564Z,21.68
2022-08-09T03:16:58.230Z,21.76
2022-08-09T03:19:52.267Z,21.60
2022-08-09T03:25:21.735Z,21.64
2022-08-09T03:28:02.191Z,21.74
2022-08-09T03:30:33.200Z,21.65
2022-08-09T03:33:12.768Z,21.83
2022-08-09T03:36:12.523Z,21.70
2022-08-09T03:38:33.661Z,21.64
2022-08-09T03:41:01.024Z,21.65
2022-08-09T03:43:32.005Z,21.50
2022-08-09T03:46:04.087Z,21.25
2022-08-09T03:48:53.837Z,21.15
2022-08-09T03:51:43.858Z,21.34
2022-08-09T03:54:13.249Z,21.29
2022-08-09T03:56:42.328Z,21.21
2022-08-09T03:59:17.303Z,21.28
2022-08-09T04:01:51.860Z,21.37
2022-08-09T04:04:19.399Z,21.24
2022-08-09T04:06:49.094Z,21.34
2022-08-09T04:09:44.362Z,21.26
2022-08-09T04:12:30.639Z,21.36
2022-08-09T04:15:02.593Z,21.37
2022-08-09T04:17:42.424Z,21.33
2022-08-09T04:20:12.640Z,21.28
2022-08-09T04:22:41.384Z,21.38
2022-08-09T04:25:13.362Z,21.25
2022-08-09T04:27:49.032Z,21.27
2022-08-09T04:30:26.041Z,21.34
2022-08-09T04:32:54.057Z,21.24
2022-08-09T04:35:21.573Z,21.43
2022-08-09T04:37:51.178Z,21.43
2022-08-09T04:40:28.459Z,21.42
2022-08-09T04:43:03.558Z,21.50
2022-08-09T04:45:31.051Z,21.46
2022-08-09T04:48:06.696Z,21.53
2022-08-09T04:50:38.000Z,21.38
2022-08-09T04:53:11.656Z,21.33
2022-08-09T04:55:58.306Z,21.53
2022-08-09T04:58:28.020Z,21.52
2022-08-09T05:00:57.560Z,21.57
2022-08-09T05:03:39.987Z,21.51
2022-08-09T05:06:09.756Z,21.56
2022-08-09T05:08:38.895Z,21.59
2022-08-09T05:11:11.625Z,21.59
2022-08-09T05:13:39.149Z,21.42
2022-08-09T05:16:08.033Z,21.58
2022-08-09T05:18:42.765Z,21.59
2022-08-09T05:21:24.629Z,21.55
2022-08-09T05:23:57.201Z,21.57
2022-08-09T05:26:37.234Z,21.53
2022-08-09T05:29:21.105Z,21.62
2022-08-09T05:31:58.520Z,21.44
2022-08-09T05:34:30.971Z,21.59
2022-08-09T05:37:05.958Z,21.73
2022-08-09T05:39:42.915Z,21.91
2022-08-09T05:42:32.999Z,21.93
2022-08-09T05:45:01.261Z,21.93
2022-08-09T05:47:30.449Z,21.89
2022-08-09T05:50:30.974Z,21.93
2022-08-09T05:52:53.519Z,21.94
2022-08-09T05:55:23.966Z,21.90
2022-08-09T05:57:57.667Z,21.90
2022-08-09T06:00:30.381Z,22.35
2022-08-09T06:02:59.454Z,24.34
2022-08-09T06:05:31.203Z,25.98
2022-08-09T06:08:19.735Z,28.23
2022-08-09T06:10:52.557Z,28.76
2022-08-09T06:13:20.965Z,29.04
2022-08-09T06:15:50.989Z,30.09
2022-08-09T06:18:23.959Z,30.10
2022-08-09T06:20:54.673Z,30.39
2022-08-09T06:23:55.766Z,31.20
2022-08-09T06:26:20.389Z,32.21
2022-08-09T06:28:59.303Z,32.81
2022-08-09T06:31:30.631Z,33.62
2022-08-09T06:33:58.706Z,33.39
2022-08-09T06:36:27.330Z,31.50
2022-08-09T06:38:57.537Z,32.09
2022-08-09T06:42:06.398Z,32.11
2022-08-09T06:44:18.368Z,33.19
2022-08-09T06:46:45.934Z,33.61
2022-08-09T06:49:16.168Z,33.79
2022-08-09T06:52:00.425Z,33.46
2022-08-09T06:54:27.892Z,32.70
2022-08-09T06:56:55.048Z,32.23
2022-08-09T07:00:56.360Z,32.49
2022-08-09T07:02:10.629Z,31.96
2022-08-09T07:04:37.926Z,31.83
2022-08-09T07:07:05.367Z,31.57
2022-08-09T07:09:56.123Z,31.34
2022-08-09T07:12:40.679Z,31.79
2022-08-09T07:15:54.075Z,29.89
2022-08-09T07:17:56.078Z,30.20
2022-08-09T07:20:29.115Z,30.48
2022-08-09T07:22:56.346Z,30.54
2022-08-09T07:25:25.429Z,29.73
2022-08-09T07:27:53.264Z,30.07
2022-08-09T07:30:21.714Z,28.94
2022-08-09T07:32:51.844Z,28.48
2022-08-09T07:35:19.795Z,29.10
2022-08-09T07:37:50.983Z,29.24
2022-08-09T07:40:26.735Z,29.29
2022-08-09T07:42:57.826Z,29.30
2022-08-09T07:45:39.097Z,29.56
2022-08-09T07:48:28.732Z,28.96
2022-08-09T07:56:49.273Z,29.31
2022-08-09T08:09:03.957Z,29.67
2022-08-09T08:12:12.019Z,28.93
2022-08-09T08:14:30.132Z,28.68
2022-08-09T08:17:07.404Z,28.39
2022-08-09T08:19:35.654Z,28.24
2022-08-09T08:22:05.804Z,28.67
2022-08-09T08:24:40.747Z,28.51
2022-08-09T08:30:23.286Z,28.47
2022-08-09T08:33:00.008Z,28.93
2022-08-09T08:35:37.080Z,28.63
2022-08-09T08:38:18.810Z,28.39
2022-08-09T08:40:49.511Z,28.58
2022-08-09T08:43:17.517Z,28.56
2022-08-09T08:45:53.441Z,28.54
2022-08-09T08:48:32.483Z,28.70
2022-08-09T08:51:00.195Z,28.46
2022-08-09T08:53:32.095Z,28.64
2022-08-09T08:56:05.244Z,28.41
2022-08-09T08:58:36.411Z,28.16
2022-08-09T09:01:09.131Z,28.28
2022-08-09T09:03:50.426Z,29.06
2022-08-09T09:06:18.504Z,28.55
2022-08-09T09:09:06.646Z,28.82
2022-08-09T09:11:48.656Z,29.06
2022-08-09T09:14:18.372Z,29.12
2022-08-09T09:16:45.813Z,29.26
2022-08-09T09:19:37.598Z,28.98
2022-08-09T09:22:12.574Z,28.88
2022-08-09T09:24:59.084Z,27.96
2022-08-09T09:28:03.665Z,28.18
2022-08-09T09:30:40.879Z,28.29
2022-08-09T09:33:15.734Z,28.57
2022-08-09T09:36:02.805Z,29.51
2022-08-09T09:38:39.874Z,28.93
2022-08-09T09:41:09.998Z,28.63
2022-08-09T09:43:41.504Z,28.32
2022-08-09T09:46:45.671Z,28.59
2022-08-09T09:49:32.191Z,28.62
2022-08-09T09:52:16.640Z,28.72
2022-08-09T09:55:27.713Z,28.66
2022-08-09T09:58:01.161Z,28.88
2022-08-09T10:00:34.457Z,28.68
2022-08-09T10:03:11.614Z,28.40
2022-08-09T10:06:03.924Z,28.35
2022-08-09T10:08:32.199Z,28.08
2022-08-09T10:11:59.525Z,28.62
2022-08-09T10:14:04.679Z,28.61
2022-08-09T10:16:58.457Z,28.75
2022-08-09T10:19:38.156Z,28.83
2022-08-09T10:22:05.183Z,28.48
2022-08-09T10:24:35.909Z,29.12
2022-08-09T10:27:10.435Z,28.97
2022-08-09T10:30:48.142Z,29.46
2022-08-09T10:32:42.355Z,28.35
2022-08-09T10:35:10.672Z,28.98
2022-08-09T10:37:40.255Z,28.77
2022-08-09T10:40:34.879Z,28.81
2022-08-09T10:42:57.342Z,28.73
2022-08-09T10:45:31.531Z,28.28
2022-08-09T10:48:29.628Z,29.02
2022-08-09T10:51:14.668Z,28.71
2022-08-09T10:53:54.775Z,28.74
2022-08-09T10:56:24.237Z,28.40
2022-08-09T10:58:56.193Z,28.92
2022-08-09T11:03:15.934Z,28.63
2022-08-09T11:04:30.984Z,28.22
2022-08-09T11:07:00.078Z,28.27
2022-08-09T11:09:47.929Z,28.66
2022-08-09T11:12:29.423Z,28.98
2022-08-09T11:14:57.653Z,28.58
2022-08-09T11:17:27.466Z,29.17
2022-08-09T11:20:10.199Z,28.88
2022-08-09T11:22:44.855Z,29.08
2022-08-09T11:25:12.529Z,29.22
2022-08-09T11:28:03.768Z,29.51
2022-08-09T11:30:32.627Z,29.75
2022-08-09T11:33:21.070Z,29.05
2022-08-09T11:35:59.804Z,29.31
2022-08-09T11:38:34.137Z,28.56
2022-08-09T11:41:37.960Z,28.82
2022-08-09T11:44:08.332Z,29.25
2022-08-09T11:47:01.075Z,29.42
2022-08-09T11:50:54.037Z,29.12
2022-08-09T11:53:15.991Z,28.71
2022-08-09T11:55:52.772Z,29.13
2022-08-09T11:58:32.259Z,28.61
2022-08-09T12:01:03.543Z,28.90
2022-08-09T12:03:56.977Z,28.58
2022-08-09T12:06:32.686Z,28.69
2022-08-09T12:09:19.126Z,28.75
2022-08-09T12:12:13.073Z,29.15
2022-08-09T12:15:08.317Z,29.27
2022-08-09T12:17:43.463Z,28.97
2022-08-09T12:20:22.868Z,29.06
2022-08-09T12:22:55.764Z,28.82
2022-08-09T12:25:36.568Z,28.82
2022-08-09T12:29:10.807Z,28.48
2022-08-09T12:30:59.319Z,28.53
2022-08-09T12:33:35.275Z,29.00
2022-08-09T12:36:27.478Z,29.19
2022-08-09T12:39:00.415Z,28.87
2022-08-09T12:41:39.211Z,29.13
2022-08-09T12:44:10.258Z,29.07
2022-08-09T12:46:41.890Z,29.41
2022-08-09T12:49:11.026Z,29.49
2022-08-09T12:52:00.581Z,28.92
2022-08-09T12:54:28.112Z,29.07
2022-08-09T12:56:58.972Z,29.21
2022-08-09T12:59:57.712Z,29.24
2022-08-09T13:02:17.709Z,29.43
2022-08-09T13:05:04.418Z,29.41
2022-08-09T13:07:50.129Z,29.17
2022-08-09T13:10:17.999Z,29.33
2022-08-09T13:13:10.038Z,29.36
2022-08-09T13:15:36.334Z,29.44
2022-08-09T13:18:09.653Z,29.28
2022-08-09T13:21:04.101Z,29.09
2022-08-09T13:24:17.267Z,29.05
2022-08-09T13:26:37.182Z,29.31
2022-08-09T13:29:13.012Z,29.16
2022-08-09T13:32:15.022Z,28.84
2022-08-09T13:34:46.238Z,28.75
2022-08-09T13:37:24.787Z,29.18
2022-08-09T13:41:50.597Z,29.45
2022-08-09T13:42:50.295Z,29.26
2022-08-09T13:45:18.019Z,29.15
2022-08-09T13:47:49.151Z,28.91
2022-08-09T13:50:30.259Z,28.84
2022-08-09T13:52:57.740Z,29.01
2022-08-09T13:55:24.554Z,29.20
2022-08-09T13:57:58.518Z,28.94
2022-08-09T14:00:29.294Z,28.87
2022-08-09T14:03:03.731Z,28.94
2022-08-09T14:05:58.860Z,29.03
2022-08-09T14:08:31.835Z,29.37
2022-08-09T14:11:00.598Z,29.16
2022-08-09T14:14:22.279Z,29.00
2022-08-09T14:16:28.367Z,29.47
2022-08-09T14:18:57.319Z,29.42
2022-08-09T14:21:29.389Z,29.91
2022-08-09T14:24:01.349Z,29.86
2022-08-09T14:26:33.926Z,29.76
2022-08-09T14:29:07.824Z,29.35
2022-08-09T14:31:55.258Z,29.33
2022-08-09T14:34:27.361Z,29.62
2022-08-09T14:37:07.601Z,29.72
2022-08-09T14:39:47.957Z,29.48
2022-08-09T14:42:31.341Z,29.78
2022-08-09T14:46:46.413Z,29.66
2022-08-09T14:47:58.284Z,29.26
2022-08-09T14:50:34.528Z,29.54
2022-08-09T14:53:11.532Z,29.57
2022-08-09T14:55:49.866Z,29.71
2022-08-09T14:58:17.470Z,29.82
2022-08-09T15:00:51.109Z,29.38
2022-08-09T15:03:20.032Z,29.63
2022-08-09T15:05:52.322Z,29.69
2022-08-09T15:08:25.295Z,29.71
2022-08-09T15:11:01.036Z,29.69
2022-08-09T15:13:48.541Z,29.57
2022-08-09T15:16:19.922Z,29.79
2022-08-09T15:18:48.927Z,29.77
2022-08-09T15:21:56.592Z,29.63
2022-08-09T15:24:12.580Z,29.81
2022-08-09T15:26:45.963Z,29.81
2022-08-09T15:30:57.625Z,29.98
2022-08-09T15:32:01.552Z,29.91
2022-08-09T15:34:32.648Z,29.71
2022-08-09T15:37:03.903Z,29.88
2022-08-09T15:39:34.429Z,30.15
2022-08-09T15:42:10.605Z,29.98
2022-08-09T15:44:38.306Z,29.88
2022-08-09T15:47:14.265Z,29.79
2022-08-09T15:50:03.449Z,29.58
2022-08-09T15:52:31.827Z,29.40
2022-08-09T15:54:59.047Z,30.17
2022-08-09T15:57:35.933Z,29.68
2022-08-09T16:00:25.733Z,29.46
2022-08-09T16:02:54.808Z,29.80
2022-08-09T16:05:26.746Z,29.31
2022-08-09T16:08:24.698Z,29.52
2022-08-09T16:10:57.128Z,29.61
2022-08-09T16:14:04.113Z,29.77
2022-08-09T16:16:18.443Z,29.33
2022-08-09T16:18:46.542Z,29.52
2022-08-09T16:21:17.389Z,29.61
2022-08-09T16:23:55.538Z,29.60
2022-08-09T16:26:35.602Z,29.52
2022-08-09T16:29:10.782Z,29.57
2022-08-09T16:32:17.695Z,29.61
2022-08-09T16:34:54.467Z,29.73
2022-08-09T16:37:55.045Z,29.53
2022-08-09T16:40:11.549Z,29.86
2022-08-09T16:42:45.034Z,29.72
2022-08-09T16:45:14.345Z,29.48
2022-08-09T16:48:39.727Z,29.39
2022-08-09T16:50:33.723Z,29.65
2022-08-09T16:53:02.465Z,29.02
2022-08-09T16:55:44.079Z,29.32
2022-08-09T16:58:21.122Z,29.08
2022-08-09T17:00:53.122Z,29.21
2022-08-09T17:03:22.958Z,29.32
2022-08-09T17:06:03.422Z,28.86
2022-08-09T17:08:59.958Z,29.22
2022-08-09T17:11:37.613Z,29.31
2022-08-09T17:14:25.684Z,29.29
2022-08-09T17:16:59.725Z,29.64
2022-08-09T17:19:46.762Z,29.45
2022-08-09T17:22:16.131Z,29.01
2022-08-09T17:24:54.837Z,29.01
2022-08-09T17:27:38.260Z,28.88
2022-08-09T17:30:07.105Z,29.04
2022-08-09T17:32:45.441Z,29.00
2022-08-09T17:35:14.152Z,29.42
2022-08-09T17:38:12.141Z,29.28
2022-08-09T17:40:30.107Z,29.06
2022-08-09T17:42:59.101Z,29.03
2022-08-09T17:46:01.788Z,29.07
2022-08-09T17:48:29.189Z,29.23
2022-08-09T17:50:59.274Z,29.27
2022-08-09T17:53:43.445Z,29.10
2022-08-09T17:56:18.551Z,28.92
2022-08-09T17:58:48.996Z,28.57
2022-08-09T18:06:49.617Z,28.66
2022-08-09T18:09:39.988Z,28.97
2022-08-09T18:12:19.651Z,28.49
2022-08-09T18:15:07.091Z,28.48
2022-08-09T18:18:04.025Z,28.53
2022-08-09T18:20:58.967Z,28.46
2022-08-09T18:24:10.223Z,28.63
2022-08-09T18:26:16.571Z,28.99
2022-08-09T18:30:38.670Z,28.56
2022-08-09T18:31:51.211Z,28.59
2022-08-09T18:34:17.244Z,28.38
2022-08-09T18:36:50.705Z,28.27
2022-08-09T18:39:22.450Z,28.59
2022-08-09T18:41:53.341Z,28.66
2022-08-09T18:44:27.273Z,28.47
2022-08-09T18:47:07.465Z,28.39
2022-08-09T18:49:41.570Z,28.42
2022-08-09T18:52:12.075Z,28.36
2022-08-09T18:54:49.641Z,28.32
2022-08-09T18:57:22.756Z,28.38
2022-08-09T18:59:55.648Z,28.14
2022-08-09T19:02:31.861Z,28.13
2022-08-09T19:05:14.042Z,28.04
2022-08-09T19:08:03.751Z,27.94
2022-08-09T19:10:36.960Z,28.06
2022-08-09T19:13:22.450Z,27.95
2022-08-09T19:15:56.869Z,27.92
2022-08-09T19:18:35.210Z,27.94
2022-08-09T19:21:09.530Z,27.98
2022-08-09T19:24:36.191Z,27.96
2022-08-09T19:26:38.673Z,28.02
2022-08-09T19:29:15.699Z,28.01
2022-08-09T19:31:49.446Z,27.90
2022-08-09T19:34:22.516Z,27.82
2022-08-09T19:36:55.785Z,27.77
2022-08-09T19:40:03.345Z,27.92
2022-08-09T19:42:19.597Z,27.80
2022-08-09T19:44:51.517Z,27.38
2022-08-09T19:47:23.229Z,27.51
2022-08-09T19:50:08.043Z,27.54
2022-08-09T19:52:49.681Z,27.68
2022-08-09T19:55:30.835Z,27.64
2022-08-09T19:58:15.862Z,27.69
2022-08-09T20:00:45.843Z,27.69
2022-08-09T20:04:09.785Z,27.62
2022-08-09T20:06:03.211Z,27.64
2022-08-09T20:08:34.838Z,27.61
2022-08-09T20:11:04.426Z,27.55
2022-08-09T20:13:37.109Z,27.41
2022-08-09T20:16:35.497Z,27.47
2022-08-09T20:19:42.861Z,27.44
2022-08-09T20:21:56.601Z,27.41
2022-08-09T20:24:33.781Z,27.32
2022-08-09T20:27:05.610Z,27.31
2022-08-09T20:29:39.591Z,27.29
2022-08-09T20:32:31.224Z,27.28
2022-08-09T20:34:55.717Z,27.27
2022-08-09T20:37:22.848Z,27.28
2022-08-09T20:40:15.557Z,27.19
2022-08-09T20:42:38.207Z,27.21
2022-08-09T20:45:56.752Z,27.17
2022-08-09T20:47:57.283Z,27.06
2022-08-09T20:50:46.930Z,26.86
2022-08-09T20:53:35.464Z,26.77
2022-08-09T20:56:03.122Z,26.82
2022-08-09T20:58:33.473Z,26.95
2022-08-09T21:01:32.843Z,26.87
2022-08-09T21:05:49.643Z,26.87
2022-08-09T21:06:42.499Z,26.86
2022-08-09T21:09:14.303Z,26.67
2022-08-09T21:14:33.090Z,26.72
2022-08-09T21:18:22.167Z,26.80
2022-08-09T21:20:19.346Z,26.66
2022-08-09T21:22:41.816Z,26.73
2022-08-09T21:25:38.031Z,26.77
2022-08-09T21:28:07.595Z,26.87
2022-08-09T21:30:40.800Z,26.69
2022-08-09T21:33:11.078Z,26.60
2022-08-09T21:35:52.461Z,26.64
2022-08-09T21:38:30.792Z,26.39
2022-08-09T21:41:02.124Z,26.52
2022-08-09T21:43:57.688Z,26.31
2022-08-09T21:47:10.967Z,26.24
2022-08-09T21:49:50.997Z,26.14
2022-08-09T21:52:20.947Z,26.26
2022-08-09T21:55:03.122Z,26.23
2022-08-09T21:57:38.687Z,26.23
2022-08-09T22:00:32.153Z,25.84
2022-08-09T22:03:02.426Z,26.10
2022-08-09T22:05:35.448Z,26.07
2022-08-09T22:08:05.383Z,26.11
2022-08-09T22:10:32.226Z,26.02
2022-08-09T22:13:00.242Z,25.91
2022-08-09T22:15:36.950Z,25.85
2022-08-09T22:24:06.502Z,25.69
2022-08-09T22:26:38.571Z,25.87
2022-08-09T22:29:10.805Z,25.71
2022-08-09T22:31:44.363Z,25.83
2022-08-09T22:34:25.678Z,25.68
2022-08-09T22:37:09.921Z,25.56
2022-08-09T22:39:55.863Z,25.55
2022-08-09T22:44:00.828Z,25.76
2022-08-09T22:49:18.713Z,25.38
2022-08-09T22:51:57.711Z,25.46
2022-08-09T22:54:27.395Z,25.44
2022-08-09T22:56:58.763Z,25.12
2022-08-09T22:59:57.101Z,25.43
2022-08-09T23:02:20.060Z,25.44
2022-08-09T23:12:57.369Z,25.39
2022-08-09T23:19:16.028Z,25.40
2022-08-09T23:21:46.366Z,25.37
2022-08-09T23:24:21.832Z,25.21
2022-08-09T23:26:52.729Z,25.30
2022-08-09T23:29:25.589Z,25.27
2022-08-09T23:32:21.627Z,25.21
2022-08-09T23:34:59.186Z,25.24
2022-08-09T23:43:55.194Z,25.21
2022-08-09T23:52:06.942Z,24.80
2022-08-09T23:57:31.852Z,24.90
